createdAt,value
2018-01-31T01:52:36.641Z,99.90
2018-01-31T01:55:04.154Z,99.90
2018-01-31T01:57:31.699Z,99.90
2018-01-31T01:59:59.206Z,99.90
2018-01-31T02:02:27.481Z,99.90
2018-01-31T02:04:55.776Z,99.90
2018-01-31T02:07:23.280Z,99.90
2018-01-31T02:09:50.807Z,99.90
2018-01-31T02:12:18.310Z,99.90
2018-01-31T02:14:45.867Z,99.90
2018-01-31T02:17:13.372Z,99.90
2018-01-31T02:19:40.899Z,99.90
2018-01-31T02:22:09.179Z,99.90
2018-01-31T02:24:37.460Z,99.90
2018-01-31T02:27:05.744Z,99.90
2018-01-31T02:29:33.240Z,99.90
2018-01-31T02:32:00.770Z,99.90
2018-01-31T02:34:28.280Z,99.90
2018-01-31T02:36:55.801Z,99.90
2018-01-31T02:42:22.868Z,99.90
2018-01-31T02:44:50.410Z,99.90
2018-01-31T02:47:17.927Z,99.90
2018-01-31T02:49:45.432Z,99.90
2018-01-31T02:52:12.960Z,99.90
2018-01-31T02:54:41.240Z,99.90
2018-01-31T02:57:09.538Z,99.90
2018-01-31T02:59:37.043Z,99.90
2018-01-31T03:02:04.632Z,99.90
2018-01-31T03:04:32.944Z,99.90
2018-01-31T03:07:00.469Z,99.90
2018-01-31T03:09:28.779Z,99.90
2018-01-31T03:11:56.300Z,99.90
2018-01-31T03:14:23.828Z,99.90
2018-01-31T03:16:51.346Z,99.90
2018-01-31T03:19:18.879Z,99.90
2018-01-31T03:21:47.185Z,99.90
2018-01-31T03:24:14.691Z,99.90
2018-01-31T03:26:42.194Z,99.90
2018-01-31T03:29:09.725Z,99.90
2018-01-31T03:31:37.999Z,99.90
2018-01-31T03:34:06.304Z,99.90
2018-01-31T03:36:33.856Z,99.90
2018-01-31T03:39:02.120Z,99.90
2018-01-31T03:41:30.400Z,99.90
2018-01-31T03:43:58.704Z,99.90
2018-01-31T03:46:26.207Z,99.90
2018-01-31T03:48:53.723Z,99.90
2018-01-31T03:51:21.251Z,99.90
2018-01-31T03:53:49.519Z,99.90
2018-01-31T03:56:17.799Z,99.90
2018-01-31T03:58:45.339Z,99.90
2018-01-31T04:01:12.868Z,99.90
2018-01-31T04:03:40.405Z,99.90
2018-01-31T04:06:07.910Z,99.90
2018-01-31T04:08:35.410Z,99.90
2018-01-31T04:11:02.933Z,99.90
2018-01-31T04:13:31.208Z,99.90
2018-01-31T04:15:58.737Z,99.90
2018-01-31T04:18:26.234Z,99.90
2018-01-31T04:20:54.532Z,99.90
2018-01-31T04:23:22.818Z,99.90
2018-01-31T04:25:50.323Z,99.90
2018-01-31T04:28:17.850Z,99.90
2018-01-31T04:30:46.111Z,99.90
2018-01-31T04:33:13.648Z,99.90
2018-01-31T04:35:41.923Z,99.90
2018-01-31T04:38:10.222Z,99.90
2018-01-31T04:40:37.730Z,99.90
2018-01-31T04:43:05.270Z,99.90
2018-01-31T04:45:32.774Z,99.90
2018-01-31T04:48:00.317Z,99.90
2018-01-31T04:50:27.836Z,99.90
2018-01-31T04:52:55.335Z,99.90
2018-01-31T04:55:22.857Z,99.90
2018-01-31T04:57:50.351Z,99.90
2018-01-31T05:00:17.895Z,99.90
2018-01-31T05:02:45.432Z,99.90
2018-01-31T05:05:12.958Z,99.90
2018-01-31T05:07:40.451Z,99.90
2018-01-31T05:10:08.002Z,99.90
2018-01-31T05:12:35.519Z,99.90
2018-01-31T05:15:03.797Z,99.90
2018-01-31T05:17:32.077Z,99.90
2018-01-31T05:20:00.343Z,99.90
2018-01-31T05:22:28.639Z,99.90
2018-01-31T05:24:56.909Z,99.90
2018-01-31T05:27:25.199Z,99.90
2018-01-31T05:29:52.702Z,99.90
2018-01-31T05:32:20.232Z,99.90
2018-01-31T05:34:47.759Z,99.90
2018-01-31T05:37:16.047Z,99.90
2018-01-31T05:39:43.565Z,99.90
2018-01-31T05:42:11.087Z,99.90
2018-01-31T05:44:38.602Z,99.90
2018-01-31T05:47:06.859Z,99.90
2018-01-31T05:49:34.388Z,99.90
2018-01-31T05:52:01.921Z,99.90
2018-01-31T05:54:29.455Z,99.90
2018-01-31T05:56:57.781Z,99.90
2018-01-31T05:59:25.279Z,99.90
2018-01-31T06:01:59.341Z,99.90
2018-01-31T06:04:26.869Z,99.90
2018-01-31T06:06:55.163Z,99.90
2018-01-31T06:09:22.676Z,99.90
2018-01-31T06:11:50.187Z,99.90
2018-01-31T06:14:17.707Z,99.90
2018-01-31T06:16:48.952Z,99.90
2018-01-31T06:19:17.294Z,99.90
2018-01-31T06:21:44.790Z,99.90
2018-01-31T06:24:13.103Z,99.90
2018-01-31T06:26:40.642Z,99.90
2018-01-31T06:29:08.920Z,99.90
2018-01-31T06:31:36.488Z,99.90
2018-01-31T06:34:04.024Z,99.90
2018-01-31T06:36:32.319Z,99.90
2018-01-31T06:38:59.840Z,99.90
2018-01-31T06:41:27.354Z,99.90
2018-01-31T06:43:54.877Z,99.90
2018-01-31T06:46:23.164Z,99.90
2018-01-31T06:48:50.724Z,99.90
2018-01-31T06:51:18.218Z,99.90
2018-01-31T06:53:45.734Z,99.90
2018-01-31T06:56:14.129Z,99.90
2018-01-31T06:58:41.662Z,99.90
2018-01-31T07:01:09.953Z,99.90
2018-01-31T07:03:37.489Z,99.90
2018-01-31T07:06:04.993Z,99.90
2018-01-31T07:08:32.514Z,99.90
2018-01-31T07:11:00.871Z,99.90
2018-01-31T07:13:28.403Z,99.90
2018-01-31T07:15:55.947Z,99.90
2018-01-31T07:18:23.470Z,99.90
2018-01-31T07:20:51.756Z,99.90
2018-01-31T07:23:20.019Z,99.90
2018-01-31T07:25:48.306Z,99.90
2018-01-31T07:28:15.850Z,99.90
2018-01-31T07:30:44.135Z,99.90
2018-01-31T07:33:12.423Z,99.90
2018-01-31T07:35:39.962Z,99.90
2018-01-31T07:38:07.480Z,99.90
2018-01-31T07:40:35.008Z,99.90
2018-01-31T07:43:02.518Z,99.90
2018-01-31T07:45:30.066Z,99.90
2018-01-31T07:47:58.142Z,99.90
2018-01-31T07:50:25.666Z,99.90
2018-01-31T07:52:53.196Z,99.90
2018-01-31T07:55:21.480Z,99.90
2018-01-31T07:57:49.759Z,99.90
2018-01-31T08:00:18.099Z,99.90
2018-01-31T08:02:45.619Z,99.90
2018-01-31T08:05:13.143Z,99.90
2018-01-31T08:07:41.433Z,99.90
2018-01-31T08:10:08.936Z,99.90
2018-01-31T08:12:36.449Z,99.90
2018-01-31T08:15:03.948Z,99.90
2018-01-31T08:17:31.466Z,99.90
2018-01-31T08:19:59.798Z,99.90
2018-01-31T08:22:27.713Z,99.90
2018-01-31T08:24:55.283Z,99.90
2018-01-31T08:27:22.812Z,99.90
2018-01-31T08:29:57.772Z,99.90
2018-01-31T08:32:25.338Z,99.80
2018-01-31T08:34:53.397Z,99.90
2018-01-31T08:37:21.022Z,99.80
2018-01-31T08:39:57.799Z,99.90
2018-01-31T08:42:25.428Z,99.80
2018-01-31T08:44:52.940Z,99.60
2018-01-31T08:47:22.137Z,99.40
2018-01-31T08:49:49.710Z,99.30
2018-01-31T08:52:17.210Z,99.50
2018-01-31T08:54:44.763Z,99.10
2018-01-31T08:57:12.300Z,99.20
2018-01-31T08:59:39.854Z,99.20
2018-01-31T09:02:08.141Z,98.80
2018-01-31T09:04:35.649Z,98.80
2018-01-31T09:07:03.210Z,98.60
2018-01-31T09:09:30.755Z,98.90
2018-01-31T09:11:58.293Z,98.40
2018-01-31T09:14:25.807Z,98.30
2018-01-31T09:16:54.087Z,97.20
2018-01-31T09:19:21.594Z,97.20
2018-01-31T09:21:49.115Z,97.30
2018-01-31T09:24:16.623Z,97.30
2018-01-31T09:26:44.159Z,96.70
2018-01-31T09:29:11.692Z,96.30
2018-01-31T09:31:39.229Z,96.40
2018-01-31T09:34:07.498Z,96.60
2018-01-31T09:36:35.788Z,96.50
2018-01-31T09:39:04.109Z,96.60
2018-01-31T09:41:31.627Z,96.60
2018-01-31T09:43:59.904Z,97.30
2018-01-31T09:46:27.486Z,97.20
2018-01-31T09:48:54.990Z,98.30
2018-01-31T09:51:22.536Z,99.70
2018-01-31T09:53:50.056Z,99.90
2018-01-31T09:56:17.600Z,99.90
2018-01-31T09:58:45.124Z,99.90
2018-01-31T10:01:12.652Z,99.90
2018-01-31T10:03:40.178Z,99.90
2018-01-31T10:06:07.697Z,99.90
2018-01-31T10:08:35.246Z,99.90
2018-01-31T10:11:02.731Z,99.90
2018-01-31T10:13:31.078Z,99.90
2018-01-31T10:15:58.581Z,99.90
2018-01-31T10:18:26.093Z,99.90
2018-01-31T10:20:53.611Z,99.90
2018-01-31T10:23:21.115Z,99.90
2018-01-31T10:25:48.651Z,99.90
2018-01-31T10:28:16.181Z,99.90
2018-01-31T10:30:43.713Z,99.90
2018-01-31T10:33:11.985Z,99.90
2018-01-31T10:35:39.537Z,99.90
2018-01-31T10:38:07.069Z,99.90
2018-01-31T10:40:34.579Z,99.90
2018-01-31T10:43:02.875Z,99.90
2018-01-31T10:45:30.408Z,99.90
2018-01-31T10:47:58.709Z,99.90
2018-01-31T10:50:26.253Z,99.90
2018-01-31T10:52:54.544Z,99.90
2018-01-31T10:57:50.394Z,99.90
2018-01-31T11:00:17.951Z,99.90
2018-01-31T11:02:45.482Z,99.90
2018-01-31T11:05:13.784Z,99.90
2018-01-31T11:07:41.312Z,99.90
2018-01-31T11:10:09.608Z,99.90
2018-01-31T11:12:37.141Z,99.90
2018-01-31T11:15:04.652Z,99.80
2018-01-31T11:17:32.157Z,99.90
2018-01-31T11:20:00.451Z,99.90
2018-01-31T11:22:28.727Z,99.70
2018-01-31T11:24:56.271Z,99.70
2018-01-31T11:27:23.790Z,99.10
2018-01-31T11:29:51.295Z,99.00
2018-01-31T11:32:19.555Z,99.20
2018-01-31T11:34:47.113Z,99.20
2018-01-31T11:37:14.631Z,98.60
2018-01-31T11:39:42.172Z,98.50
2018-01-31T11:42:09.711Z,98.20
2018-01-31T11:44:37.966Z,98.10
2018-01-31T11:47:06.072Z,98.20
2018-01-31T11:49:33.559Z,98.30
2018-01-31T11:52:01.092Z,98.10
2018-01-31T11:54:28.607Z,98.50
2018-01-31T11:56:56.126Z,98.40
2018-01-31T11:59:23.658Z,98.50
2018-01-31T12:01:51.956Z,98.30
2018-01-31T12:04:19.494Z,98.30
2018-01-31T12:06:47.758Z,97.90
2018-01-31T12:09:28.175Z,98.20
2018-01-31T12:11:55.751Z,98.20
2018-01-31T12:14:35.226Z,98.30
2018-01-31T12:17:09.274Z,98.10
2018-01-31T12:22:57.967Z,97.40
2018-01-31T12:25:37.439Z,97.40
2018-01-31T12:28:17.627Z,97.60
2018-01-31T12:30:56.956Z,97.60
2018-01-31T12:33:36.415Z,97.40
2018-01-31T12:36:15.805Z,97.20
2018-01-31T12:38:56.027Z,97.20
2018-01-31T12:41:23.108Z,97.20
2018-01-31T12:43:50.920Z,96.80
2018-01-31T12:46:30.499Z,96.90
2018-01-31T12:49:10.749Z,96.70
2018-01-31T12:54:50.854Z,96.80
2018-01-31T12:57:30.983Z,96.80
2018-01-31T13:00:10.513Z,96.80
2018-01-31T13:05:51.034Z,96.70
2018-01-31T13:08:30.590Z,96.40
2018-01-31T13:11:07.217Z,95.90
2018-01-31T13:13:47.604Z,95.50
2018-01-31T13:16:27.143Z,95.50
2018-01-31T13:19:07.552Z,95.50
2018-01-31T13:21:47.009Z,95.50
2018-01-31T13:24:26.575Z,95.20
2018-01-31T13:27:20.574Z,95.20
2018-01-31T13:30:00.010Z,95.20
2018-01-31T13:32:55.846Z,94.60
2018-01-31T13:38:34.763Z,94.70
2018-01-31T13:41:14.936Z,94.70
2018-01-31T13:43:54.935Z,95.30
2018-01-31T13:46:34.399Z,95.30
2018-01-31T13:49:14.701Z,95.00
2018-01-31T13:51:56.613Z,94.90
2018-01-31T13:54:36.840Z,95.00
2018-01-31T13:57:18.799Z,95.30
2018-01-31T13:59:58.878Z,95.40
2018-01-31T14:02:40.956Z,95.20
2018-01-31T14:05:20.537Z,95.40
2018-01-31T14:07:59.769Z,95.10
2018-01-31T14:10:39.106Z,95.60
2018-01-31T14:13:18.536Z,95.60
2018-01-31T14:15:59.064Z,95.60
2018-01-31T14:18:38.508Z,95.70
2018-01-31T14:21:18.861Z,95.60
2018-01-31T14:24:10.084Z,95.60
2018-01-31T14:26:50.155Z,95.80
2018-01-31T14:29:29.415Z,95.80
2018-01-31T14:32:08.887Z,96.20
2018-01-31T14:34:48.143Z,96.00
2018-01-31T14:37:15.941Z,96.50
2018-01-31T14:39:42.962Z,96.50
2018-01-31T14:42:10.763Z,96.30
2018-01-31T14:44:37.822Z,96.30
2018-01-31T14:47:05.010Z,96.40
2018-01-31T14:49:32.056Z,96.30
2018-01-31T14:51:59.988Z,96.40
2018-01-31T14:54:27.089Z,96.40
2018-01-31T14:56:54.926Z,96.50
2018-01-31T14:59:22.063Z,97.40
2018-01-31T15:01:49.118Z,97.10
2018-01-31T15:04:16.946Z,97.20
2018-01-31T15:06:43.983Z,97.20
2018-01-31T15:09:11.443Z,97.00
2018-01-31T15:11:38.485Z,97.10
2018-01-31T15:14:05.554Z,97.00
2018-01-31T15:16:32.610Z,97.10
2018-01-31T15:18:59.662Z,97.10
2018-01-31T15:21:26.728Z,97.10
2018-01-31T15:23:53.764Z,97.10
2018-01-31T15:26:20.901Z,97.10
2018-01-31T15:28:47.930Z,97.20
2018-01-31T15:31:14.956Z,97.20
2018-01-31T15:33:42.784Z,97.30
2018-01-31T15:36:09.819Z,97.30
2018-01-31T15:38:36.871Z,97.60
2018-01-31T15:41:03.884Z,98.40
2018-01-31T15:43:30.958Z,98.90
2018-01-31T15:45:58.020Z,98.90
2018-01-31T15:48:25.044Z,99.40
2018-01-31T15:50:52.099Z,99.20
2018-01-31T15:53:19.165Z,99.80
2018-01-31T15:55:46.257Z,99.90
2018-01-31T15:58:14.091Z,99.90
2018-01-31T16:00:44.519Z,99.90
2018-01-31T16:03:11.603Z,99.90
2018-01-31T16:08:29.398Z,99.90
2018-01-31T16:10:56.443Z,99.90
2018-01-31T16:13:23.480Z,99.90
2018-01-31T16:15:50.543Z,99.90
2018-01-31T16:18:30.288Z,99.90
2018-01-31T16:21:09.912Z,99.90
2018-01-31T16:23:38.245Z,99.90
2018-01-31T16:26:05.778Z,99.90
2018-01-31T16:28:45.131Z,99.90
2018-01-31T16:31:16.264Z,99.90
2018-01-31T16:33:43.766Z,99.90
2018-01-31T16:36:13.270Z,99.90
2018-01-31T16:38:40.788Z,99.90
2018-01-31T16:41:09.092Z,99.90
2018-01-31T16:43:36.604Z,99.90
2018-01-31T16:46:04.153Z,99.90
2018-01-31T16:48:31.676Z,99.90
2018-01-31T16:50:59.188Z,99.90
2018-01-31T16:53:26.777Z,99.90
2018-01-31T16:55:55.041Z,99.90
2018-01-31T16:58:23.328Z,99.90
2018-01-31T17:00:52.423Z,99.90
2018-01-31T17:03:20.708Z,99.90
2018-01-31T17:05:48.251Z,99.90
2018-01-31T17:08:16.529Z,99.90
2018-01-31T17:10:44.804Z,99.90
2018-01-31T17:13:12.362Z,99.90
2018-01-31T17:15:39.928Z,99.90
2018-01-31T17:18:08.295Z,99.90
2018-01-31T17:20:36.579Z,99.90
2018-01-31T17:23:04.861Z,99.90
2018-01-31T17:25:33.162Z,99.90
2018-01-31T17:28:01.427Z,99.90
2018-01-31T17:30:28.943Z,99.90
2018-01-31T17:32:56.491Z,99.90
2018-01-31T17:35:23.996Z,99.90
2018-01-31T17:37:51.530Z,99.90
2018-01-31T17:40:19.856Z,99.90
2018-01-31T17:42:47.456Z,99.90
2018-01-31T17:45:14.968Z,99.90
2018-01-31T17:47:42.491Z,99.90
2018-01-31T17:50:10.779Z,99.90
2018-01-31T17:52:39.096Z,99.90
2018-01-31T17:55:06.616Z,99.90
2018-01-31T17:57:34.161Z,99.90
2018-01-31T18:00:02.439Z,99.90
2018-01-31T18:02:30.743Z,99.90
2018-01-31T18:04:58.300Z,99.90
2018-01-31T18:07:25.858Z,99.90
2018-01-31T18:09:53.653Z,99.90
2018-01-31T18:12:21.198Z,99.90
2018-01-31T18:14:48.771Z,99.90
2018-01-31T18:17:16.300Z,99.90
2018-01-31T18:19:43.919Z,99.90
2018-01-31T18:22:11.521Z,99.90
2018-01-31T18:24:39.073Z,99.90
2018-01-31T18:27:06.600Z,99.90
2018-01-31T18:29:34.242Z,99.90
2018-01-31T18:32:02.118Z,99.90
2018-01-31T18:34:29.664Z,99.90
2018-01-31T18:36:57.454Z,99.90
2018-01-31T18:39:25.216Z,99.90
2018-01-31T18:41:53.182Z,99.90
2018-01-31T18:44:20.786Z,99.90
2018-01-31T18:46:48.307Z,99.90
2018-01-31T18:49:16.068Z,99.90
2018-01-31T18:51:43.869Z,99.90
2018-01-31T18:54:11.467Z,99.90
2018-01-31T18:56:39.819Z,99.90
2018-01-31T18:59:07.540Z,99.90
2018-01-31T19:01:35.115Z,99.90
2018-01-31T19:04:03.390Z,99.90
2018-01-31T19:06:31.696Z,99.90
2018-01-31T19:08:59.354Z,99.90
2018-01-31T19:11:26.934Z,99.90
2018-01-31T19:13:54.459Z,99.90
2018-01-31T19:16:22.773Z,99.90
2018-01-31T19:18:50.324Z,99.90
2018-01-31T19:21:18.155Z,99.90
2018-01-31T19:23:45.695Z,99.90
2018-01-31T19:26:13.272Z,99.90
2018-01-31T19:28:41.553Z,99.90
2018-01-31T19:31:09.830Z,99.90
2018-01-31T19:33:38.138Z,99.90
2018-01-31T19:36:05.658Z,99.90
2018-01-31T19:38:33.976Z,99.90
2018-01-31T19:41:02.248Z,99.90
2018-01-31T19:43:29.778Z,99.90
2018-01-31T19:45:58.101Z,99.90
2018-01-31T19:48:25.620Z,99.90
2018-01-31T19:50:53.179Z,99.90
2018-01-31T19:53:20.690Z,99.90
2018-01-31T19:55:48.244Z,99.90
2018-01-31T19:58:15.758Z,99.90
2018-01-31T20:00:43.896Z,99.90
2018-01-31T20:03:11.442Z,99.90
2018-01-31T20:05:38.982Z,99.90
2018-01-31T20:08:06.517Z,99.90
2018-01-31T20:10:34.035Z,99.90
2018-01-31T20:13:02.370Z,99.90
2018-01-31T20:15:29.870Z,99.90
2018-01-31T20:17:57.409Z,99.90
2018-01-31T20:20:24.909Z,99.90
2018-01-31T20:22:54.896Z,99.90
2018-01-31T20:25:22.395Z,99.90
2018-01-31T20:27:49.920Z,99.90
2018-01-31T20:30:17.432Z,99.90
2018-01-31T20:32:44.960Z,99.90
2018-01-31T20:35:13.301Z,99.90
2018-01-31T20:37:42.380Z,99.90
2018-01-31T20:40:09.939Z,99.90
2018-01-31T20:42:38.074Z,99.90
2018-01-31T20:45:05.675Z,99.90
2018-01-31T20:47:33.260Z,99.90
2018-01-31T20:50:00.829Z,99.90
2018-01-31T20:52:29.393Z,99.90
2018-01-31T20:54:57.433Z,99.90
2018-01-31T20:57:25.791Z,99.90
2018-01-31T20:59:53.488Z,99.90
2018-01-31T21:02:21.012Z,99.90
2018-01-31T21:04:49.202Z,99.90
2018-01-31T21:07:17.064Z,99.90
2018-01-31T21:09:44.629Z,99.90
2018-01-31T21:12:12.131Z,99.90
2018-01-31T21:14:40.460Z,99.90
2018-01-31T21:17:08.144Z,99.90
2018-01-31T21:19:35.681Z,99.90
2018-01-31T21:22:03.212Z,99.90
2018-01-31T21:24:30.755Z,99.90
2018-01-31T21:26:58.277Z,99.90
2018-01-31T21:29:25.840Z,99.90
2018-01-31T21:31:53.374Z,99.90
2018-01-31T21:34:20.918Z,99.90
2018-01-31T21:36:48.905Z,99.90
2018-01-31T21:39:16.455Z,99.90
2018-01-31T21:41:43.984Z,99.90
2018-01-31T21:44:12.259Z,99.90
2018-01-31T21:46:40.841Z,99.90
2018-01-31T21:49:09.561Z,99.90
2018-01-31T21:51:37.109Z,99.90
2018-01-31T21:54:04.657Z,99.90
2018-01-31T21:56:32.921Z,99.90
2018-01-31T21:59:00.457Z,99.90
2018-01-31T22:01:27.965Z,99.90
2018-01-31T22:03:55.487Z,99.90
2018-01-31T22:06:22.987Z,99.90
2018-01-31T22:08:50.513Z,99.90
2018-01-31T22:11:18.062Z,99.90
2018-01-31T22:13:45.572Z,99.90
2018-01-31T22:16:13.075Z,99.90
2018-01-31T22:18:40.628Z,99.90
2018-01-31T22:21:08.124Z,99.90
2018-01-31T22:23:36.389Z,99.90
2018-01-31T22:26:04.675Z,99.90
2018-01-31T22:28:32.941Z,99.90
2018-01-31T22:31:01.228Z,99.90
2018-01-31T22:33:29.498Z,99.90
2018-01-31T22:35:57.808Z,99.90
2018-01-31T22:38:25.307Z,99.90
2018-01-31T22:40:52.852Z,99.90
2018-01-31T22:43:20.361Z,99.90
2018-01-31T22:45:47.933Z,99.90
2018-01-31T22:48:15.460Z,99.90
2018-01-31T22:50:43.753Z,99.90
2018-01-31T22:53:11.303Z,99.90
2018-01-31T22:55:39.586Z,99.90
2018-01-31T22:58:07.120Z,99.90
2018-01-31T23:00:34.643Z,99.90
2018-01-31T23:03:02.918Z,99.90
2018-01-31T23:05:30.448Z,99.90
2018-01-31T23:07:57.958Z,99.90
2018-01-31T23:10:25.508Z,99.90
2018-01-31T23:12:58.586Z,99.90
2018-01-31T23:15:26.171Z,99.90
2018-01-31T23:17:59.500Z,99.90
2018-01-31T23:20:27.031Z,99.90
2018-01-31T23:22:54.531Z,99.90
2018-01-31T23:25:22.048Z,99.90
2018-01-31T23:27:49.537Z,99.90
2018-01-31T23:30:17.833Z,99.90
2018-01-31T23:32:45.343Z,99.90
2018-01-31T23:35:12.842Z,99.90
2018-01-31T23:37:40.367Z,99.90
2018-01-31T23:40:07.883Z,99.90
2018-01-31T23:42:35.392Z,99.90
2018-01-31T23:45:03.689Z,99.90
2018-01-31T23:47:31.295Z,99.90
2018-01-31T23:49:59.580Z,99.90
2018-01-31T23:52:27.123Z,99.90
2018-01-31T23:54:54.680Z,99.90
2018-01-31T23:57:22.179Z,99.90
2018-01-31T23:59:50.477Z,99.90
